Manhattan Regional Airport
KMHK : now visible

Aeroporto :











RITROVATECI SU...

 
LOGIN :

Iscrizione | Disclaimer

   EN    FR    IT 

 









Sommario :    VFR   VFR Marginale   IFR   IFR Intensivo   IFR Molto Intensivo
Visibilità : 
Base nubi : 
>= 8 km
>= 3000ft
5 / 8 km
1000 / 3000 ft
1500m / 5 km
500 / 1000 ft
800 / 1500m
200 / 500 ft
< 800m
< 200 ft
Simboli :   Temporali  Nebbia  Neve Forte  Precipitazioni Forti  Vento > 20 kt






- Altitudine del aeroporto : 1057 ft
- Codice IATA : MHK


KMHK - Manhattan Regional

ULTIMO METAR :
  • 022252Z 03007KT 10SM CLR 06/M05 A3028 RMK AO2 SLP261 T00611050

METARs OBSOLETI :
  • 022152Z 04011G17KT 10SM CLR 09/M04 A3026 RMK AO2 SLP254 T00941044
  • 022052Z AUTO 01009KT 10SM CLR 09/M04 A3025 RMK AO2 SLP251 T00891039 56015
  • 021952Z 03007KT 10SM CLR 09/M04 A3026 RMK AO2 SLP254 T00941039

TAF KMHK
Valido dal 02 a 18 ore il 03 a 18 ore UTC


021726Z 0218/0318 04005KT P6SM BKN100
FM031100 36007KT P6SM BKN100
FIR KZKC / America del Nord



MetMap, La meteo Aeronautica in un colpo d'occhio ! - Copyright ORBIFLY Dicembre 2007 - Disclaimer

ORBIFLY MET'MAP TEAM :

Programmazione e sviluppo : Alexandra Zaïnal
Concezione : Baudouin d'Aumeries
Aiuto per la programmazione : Marc-Olivier Méhu
Supporto tecnico e logistico : Manuel Goepfert
Aiuto per la traduzione : Arnaldo La Scala

Contatto : metmap@orbifly.com




FONTI E CREDITI :

   NOAA       Earth
Advisory